createdAt,value
2017-10-31T00:01:33.336Z,7.60
2017-10-31T00:04:00.991Z,7.60
2017-10-31T00:06:28.589Z,7.70
2017-10-31T00:08:56.395Z,7.70
2017-10-31T00:11:23.961Z,7.70
2017-10-31T00:13:51.610Z,7.70
2017-10-31T00:16:19.275Z,7.70
2017-10-31T00:18:46.966Z,7.70
2017-10-31T00:21:14.600Z,7.60
2017-10-31T00:23:42.371Z,7.70
2017-10-31T00:26:09.994Z,7.70
2017-10-31T00:28:37.608Z,7.60
2017-10-31T00:31:05.556Z,7.60
2017-10-31T00:33:33.133Z,7.60
2017-10-31T00:36:00.793Z,7.60
2017-10-31T00:38:28.412Z,7.60
2017-10-31T00:40:56.073Z,7.70
2017-10-31T00:43:24.023Z,7.70
2017-10-31T00:45:51.655Z,7.80
2017-10-31T00:48:20.117Z,7.90
2017-10-31T00:50:47.769Z,7.90
2017-10-31T00:53:15.390Z,8.00
2017-10-31T00:55:43.922Z,7.90
2017-10-31T00:58:11.596Z,7.90
2017-10-31T01:00:39.246Z,7.80
2017-10-31T01:03:06.847Z,7.80
2017-10-31T01:05:34.502Z,7.70
2017-10-31T01:08:02.149Z,7.80
2017-10-31T01:10:29.794Z,7.70
2017-10-31T01:12:57.481Z,7.80
2017-10-31T01:15:25.121Z,7.70
2017-10-31T01:17:52.949Z,7.80
2017-10-31T01:20:21.310Z,7.70
2017-10-31T01:22:48.930Z,7.70
2017-10-31T01:25:16.535Z,7.60
2017-10-31T01:27:44.138Z,7.60
2017-10-31T01:30:11.778Z,7.60
2017-10-31T01:32:40.171Z,7.60
2017-10-31T01:35:07.829Z,7.60
2017-10-31T01:37:35.493Z,7.60
2017-10-31T01:40:03.159Z,7.70
2017-10-31T01:42:30.769Z,7.70
2017-10-31T01:44:58.388Z,7.70
2017-10-31T01:47:25.983Z,7.80
2017-10-31T01:49:53.582Z,7.90
2017-10-31T01:52:21.233Z,7.90
2017-10-31T01:54:49.716Z,8.00
2017-10-31T01:57:18.161Z,8.00
2017-10-31T01:59:45.799Z,8.00
2017-10-31T02:02:13.489Z,7.90
2017-10-31T02:04:41.217Z,7.80
2017-10-31T02:07:08.847Z,7.70
2017-10-31T02:09:37.306Z,7.60
2017-10-31T02:12:05.018Z,7.60
2017-10-31T02:14:32.679Z,7.60
2017-10-31T02:17:00.337Z,7.50
2017-10-31T02:19:27.949Z,7.50
2017-10-31T02:21:55.545Z,7.40
2017-10-31T02:24:23.172Z,7.50
2017-10-31T02:26:50.838Z,7.40
2017-10-31T02:29:18.457Z,7.40
2017-10-31T02:31:46.085Z,7.30
2017-10-31T02:34:14.474Z,7.40
2017-10-31T02:36:42.165Z,7.40
2017-10-31T02:39:19.650Z,7.40
2017-10-31T02:41:47.284Z,7.40
2017-10-31T02:44:14.861Z,7.40
2017-10-31T02:46:42.488Z,7.50
2017-10-31T02:49:10.891Z,7.50
2017-10-31T02:51:38.604Z,7.50
2017-10-31T02:54:07.097Z,7.50
2017-10-31T02:56:34.736Z,7.50
2017-10-31T02:59:02.363Z,7.60
2017-10-31T03:01:30.023Z,7.50
2017-10-31T03:03:57.662Z,7.50
2017-10-31T03:06:26.068Z,7.50
2017-10-31T03:08:53.769Z,7.50
2017-10-31T03:11:21.484Z,7.40
2017-10-31T03:13:49.895Z,7.50
2017-10-31T03:16:18.429Z,7.50
2017-10-31T03:18:46.193Z,7.50
2017-10-31T03:21:14.726Z,7.60
2017-10-31T03:23:42.384Z,7.60
2017-10-31T03:26:10.050Z,7.60
2017-10-31T03:28:37.658Z,7.60
2017-10-31T03:31:06.018Z,7.50
2017-10-31T03:33:33.840Z,7.50
2017-10-31T03:36:01.481Z,7.50
2017-10-31T03:38:29.908Z,7.50
2017-10-31T03:40:57.573Z,7.50
2017-10-31T03:43:25.308Z,7.50
2017-10-31T03:45:52.940Z,7.50
2017-10-31T03:48:21.350Z,7.40
2017-10-31T03:50:49.012Z,7.40
2017-10-31T03:53:16.646Z,7.40
2017-10-31T03:55:44.984Z,7.40
2017-10-31T03:58:12.680Z,7.30
2017-10-31T04:00:41.868Z,7.40
2017-10-31T04:03:09.516Z,7.30
2017-10-31T04:05:37.933Z,7.40
2017-10-31T04:08:06.290Z,7.30
2017-10-31T04:10:34.040Z,7.30
2017-10-31T04:13:02.452Z,7.20
2017-10-31T04:15:30.845Z,7.20
2017-10-31T04:17:58.488Z,7.20
2017-10-31T04:20:26.898Z,7.10
2017-10-31T04:22:54.537Z,7.10
2017-10-31T04:25:22.910Z,7.00
2017-10-31T04:27:52.236Z,7.00
2017-10-31T04:30:19.863Z,7.00
2017-10-31T04:32:48.206Z,7.00
2017-10-31T04:35:15.829Z,7.00
2017-10-31T04:37:43.479Z,7.00
2017-10-31T04:40:11.061Z,7.10
2017-10-31T04:42:38.700Z,7.00
2017-10-31T04:45:07.163Z,7.20
2017-10-31T04:47:35.639Z,7.20
2017-10-31T04:50:03.279Z,7.20
2017-10-31T04:52:30.953Z,7.30
2017-10-31T04:54:58.625Z,7.30
2017-10-31T04:57:26.265Z,7.40
2017-10-31T04:59:53.996Z,7.40
2017-10-31T05:02:21.587Z,7.50
2017-10-31T05:04:49.150Z,7.50
2017-10-31T05:07:16.810Z,7.50
2017-10-31T05:09:44.389Z,7.50
2017-10-31T05:12:12.002Z,7.50
2017-10-31T05:14:39.917Z,7.50
2017-10-31T05:17:08.292Z,7.40
2017-10-31T05:19:35.941Z,7.40
2017-10-31T05:22:03.573Z,7.40
2017-10-31T05:24:31.188Z,7.40
2017-10-31T05:26:59.538Z,7.40
2017-10-31T05:29:27.913Z,7.40
2017-10-31T05:31:55.879Z,7.40
2017-10-31T05:34:23.490Z,7.10
2017-10-31T05:36:51.867Z,7.10
2017-10-31T05:39:19.495Z,7.10
2017-10-31T05:41:47.887Z,7.20
2017-10-31T05:44:15.514Z,7.20
2017-10-31T05:46:43.126Z,7.30
2017-10-31T05:49:10.724Z,7.30
2017-10-31T05:51:38.384Z,7.40
2017-10-31T05:54:05.994Z,7.40
2017-10-31T05:56:33.679Z,7.50
2017-10-31T05:59:01.360Z,7.50
2017-10-31T06:01:29.048Z,7.60
2017-10-31T06:03:57.424Z,7.60
2017-10-31T06:06:25.093Z,7.60
2017-10-31T06:08:52.670Z,7.70
2017-10-31T06:11:21.019Z,7.60
2017-10-31T06:13:48.662Z,7.60
2017-10-31T06:16:16.290Z,7.50
2017-10-31T06:18:43.917Z,7.60
2017-10-31T06:21:12.719Z,7.60
2017-10-31T06:23:45.913Z,7.60
2017-10-31T06:26:19.888Z,7.50
2017-10-31T06:28:53.233Z,7.50
2017-10-31T06:31:27.071Z,7.50
2017-10-31T06:33:54.696Z,7.50
2017-10-31T06:36:22.394Z,7.60
2017-10-31T06:38:50.047Z,7.60
2017-10-31T06:41:17.714Z,7.60
2017-10-31T06:43:45.377Z,7.70
2017-10-31T06:46:13.031Z,7.60
2017-10-31T06:48:40.680Z,7.60
2017-10-31T06:51:09.054Z,7.60
2017-10-31T06:53:36.662Z,7.60
2017-10-31T06:56:04.284Z,7.60
2017-10-31T06:58:31.978Z,7.60
2017-10-31T07:00:59.627Z,7.50
2017-10-31T07:03:27.336Z,7.60
2017-10-31T07:05:55.691Z,7.60
2017-10-31T07:08:23.332Z,7.60
2017-10-31T07:10:50.942Z,7.80
2017-10-31T07:13:18.558Z,7.80
2017-10-31T07:15:46.179Z,7.90
2017-10-31T07:18:13.770Z,7.90
2017-10-31T07:20:41.525Z,8.00
2017-10-31T07:23:09.170Z,8.10
2017-10-31T07:25:36.774Z,8.10
2017-10-31T07:28:04.375Z,8.20
2017-10-31T07:30:32.771Z,8.40
2017-10-31T07:33:00.418Z,8.30
2017-10-31T07:35:28.049Z,8.40
2017-10-31T07:37:56.496Z,8.50
2017-10-31T07:40:24.121Z,8.50
2017-10-31T07:42:51.714Z,8.60
2017-10-31T07:45:19.339Z,8.50
2017-10-31T07:47:46.962Z,8.50
2017-10-31T07:50:14.581Z,8.60
2017-10-31T07:52:42.236Z,8.60
2017-10-31T07:55:09.839Z,8.70
2017-10-31T07:57:37.453Z,8.70
2017-10-31T08:00:05.056Z,8.90
2017-10-31T08:02:32.697Z,8.90
2017-10-31T08:05:00.406Z,9.00
2017-10-31T08:07:27.981Z,8.90
2017-10-31T08:09:56.321Z,8.70
2017-10-31T08:12:24.037Z,8.70
2017-10-31T08:14:51.703Z,8.60
2017-10-31T08:17:19.391Z,8.70
2017-10-31T08:19:47.258Z,8.80
2017-10-31T08:22:14.860Z,8.90
2017-10-31T08:24:42.491Z,8.90
2017-10-31T08:27:10.136Z,9.00
2017-10-31T08:29:37.873Z,9.00
2017-10-31T08:32:05.520Z,9.20
2017-10-31T08:34:33.183Z,9.30
2017-10-31T08:37:00.869Z,9.40
2017-10-31T08:39:28.515Z,9.50
2017-10-31T08:41:56.894Z,9.60
2017-10-31T08:44:24.522Z,9.60
2017-10-31T08:46:52.118Z,9.60
2017-10-31T08:49:19.737Z,9.60
2017-10-31T08:51:47.339Z,9.70
2017-10-31T08:54:14.928Z,9.70
2017-10-31T08:56:43.338Z,9.40
2017-10-31T08:59:10.991Z,9.40
2017-10-31T09:01:38.692Z,9.50
2017-10-31T09:04:07.078Z,9.50
2017-10-31T09:06:35.421Z,9.60
2017-10-31T09:09:03.058Z,9.60
2017-10-31T09:11:31.435Z,9.40
2017-10-31T09:13:59.011Z,9.40
2017-10-31T09:16:27.396Z,9.50
2017-10-31T09:18:55.024Z,9.50
2017-10-31T09:21:24.636Z,9.30
2017-10-31T09:23:52.990Z,9.10
2017-10-31T09:26:22.168Z,9.30
2017-10-31T09:28:49.854Z,9.20
2017-10-31T09:31:17.460Z,9.20
2017-10-31T09:33:45.828Z,9.40
2017-10-31T09:36:15.207Z,9.60
2017-10-31T09:38:42.890Z,9.60
2017-10-31T09:41:11.328Z,9.70
2017-10-31T09:43:38.941Z,9.70
2017-10-31T09:46:07.357Z,9.90
2017-10-31T09:48:34.940Z,9.90
2017-10-31T09:51:02.614Z,10.00
2017-10-31T09:53:31.006Z,10.10
2017-10-31T09:55:58.623Z,10.10
2017-10-31T09:58:26.335Z,10.10
2017-10-31T10:00:54.085Z,10.10
2017-10-31T10:03:22.494Z,10.30
2017-10-31T10:05:50.085Z,10.30
2017-10-31T10:08:17.662Z,10.40
2017-10-31T10:10:45.341Z,10.50
2017-10-31T10:13:12.961Z,10.50
2017-10-31T10:15:40.605Z,10.60
2017-10-31T10:18:08.312Z,10.60
2017-10-31T10:20:36.626Z,10.60
2017-10-31T10:23:05.159Z,10.50
2017-10-31T10:25:32.732Z,10.50
2017-10-31T10:28:00.379Z,10.50
2017-10-31T10:30:27.975Z,10.40
2017-10-31T10:32:56.432Z,10.40
2017-10-31T10:35:24.038Z,10.30
2017-10-31T10:37:51.660Z,10.50
2017-10-31T10:40:19.303Z,10.60
2017-10-31T10:42:46.947Z,10.50
2017-10-31T10:45:14.659Z,10.40
2017-10-31T10:47:42.296Z,10.30
2017-10-31T10:50:09.909Z,10.40
2017-10-31T10:52:37.911Z,10.40
2017-10-31T10:55:05.555Z,10.40
2017-10-31T10:57:33.267Z,10.40
2017-10-31T11:00:01.026Z,10.30
2017-10-31T11:02:28.692Z,10.30
2017-10-31T11:04:56.345Z,10.40
2017-10-31T11:07:24.075Z,10.40
2017-10-31T11:09:51.700Z,10.40
2017-10-31T11:12:20.063Z,10.50
2017-10-31T11:14:47.669Z,10.50
2017-10-31T11:17:15.351Z,10.60
2017-10-31T11:19:42.917Z,10.60
2017-10-31T11:22:10.542Z,10.70
2017-10-31T11:24:38.120Z,10.70
2017-10-31T11:27:05.736Z,10.60
2017-10-31T11:29:33.494Z,10.70
2017-10-31T11:32:01.512Z,10.80
2017-10-31T11:34:29.842Z,10.90
2017-10-31T11:36:57.636Z,11.00
2017-10-31T11:39:25.282Z,11.20
2017-10-31T11:41:52.980Z,11.30
2017-10-31T11:44:20.875Z,11.40
2017-10-31T11:46:49.276Z,11.50
2017-10-31T11:49:18.702Z,11.60
2017-10-31T11:51:46.824Z,11.60
2017-10-31T11:54:14.881Z,11.60
2017-10-31T11:56:43.078Z,11.60
2017-10-31T11:59:10.808Z,11.50
2017-10-31T12:01:39.177Z,11.60
2017-10-31T12:04:06.785Z,11.70
2017-10-31T12:06:34.492Z,11.60
2017-10-31T12:09:02.090Z,11.60
2017-10-31T12:11:29.700Z,11.60
2017-10-31T12:13:58.123Z,11.70
2017-10-31T12:16:25.727Z,11.60
2017-10-31T12:18:53.313Z,11.80
2017-10-31T12:21:20.913Z,11.90
2017-10-31T12:23:48.714Z,11.90
2017-10-31T12:26:16.386Z,12.10
2017-10-31T12:28:44.059Z,12.00
2017-10-31T12:31:11.949Z,12.00
2017-10-31T12:33:39.541Z,12.10
2017-10-31T12:36:07.770Z,12.30
2017-10-31T12:38:35.459Z,12.10
2017-10-31T12:41:03.075Z,11.90
2017-10-31T12:43:30.929Z,11.90
2017-10-31T12:45:58.542Z,12.00
2017-10-31T12:48:26.972Z,12.10
2017-10-31T12:50:54.644Z,12.10
2017-10-31T12:53:22.296Z,11.90
2017-10-31T12:55:49.936Z,11.90
2017-10-31T12:58:17.617Z,12.00
2017-10-31T13:00:45.317Z,11.80
2017-10-31T13:03:12.943Z,11.80
2017-10-31T13:05:40.765Z,11.90
2017-10-31T13:08:08.439Z,11.80
2017-10-31T13:10:36.908Z,11.90
2017-10-31T13:13:04.568Z,11.90
2017-10-31T13:15:32.974Z,11.80
2017-10-31T13:18:00.561Z,11.80
2017-10-31T13:20:28.208Z,11.90
2017-10-31T13:22:55.888Z,11.80
2017-10-31T13:25:23.535Z,11.90
2017-10-31T13:27:51.521Z,12.00
2017-10-31T13:30:19.676Z,12.10
2017-10-31T13:32:47.805Z,11.80
2017-10-31T13:35:16.579Z,11.90
2017-10-31T13:37:44.803Z,11.90
2017-10-31T13:40:12.975Z,11.90
2017-10-31T13:42:42.039Z,11.70
2017-10-31T13:45:10.518Z,11.80
2017-10-31T13:47:38.689Z,11.80
2017-10-31T13:50:06.913Z,11.80
2017-10-31T13:52:35.491Z,11.80
2017-10-31T13:55:03.128Z,11.80
2017-10-31T13:57:30.739Z,11.70
2017-10-31T13:59:58.465Z,11.60
2017-10-31T14:02:26.633Z,11.70
2017-10-31T14:04:54.784Z,11.50
2017-10-31T14:07:22.725Z,11.50
2017-10-31T14:09:50.773Z,11.60
2017-10-31T14:12:18.903Z,11.60
2017-10-31T14:14:46.566Z,11.70
2017-10-31T14:17:15.017Z,11.50
2017-10-31T14:19:44.041Z,11.40
2017-10-31T14:22:11.677Z,11.40
2017-10-31T14:24:39.344Z,11.50
2017-10-31T14:27:07.000Z,11.60
2017-10-31T14:29:35.582Z,11.60
2017-10-31T14:32:03.231Z,11.60
2017-10-31T14:34:31.044Z,11.60
2017-10-31T14:36:59.506Z,11.60
2017-10-31T14:39:28.440Z,11.60
2017-10-31T14:41:56.462Z,11.70
2017-10-31T14:44:24.114Z,11.50
2017-10-31T14:46:51.912Z,11.60
2017-10-31T14:49:19.663Z,11.70
2017-10-31T14:51:48.124Z,11.60
2017-10-31T14:54:16.691Z,11.60
2017-10-31T14:56:44.341Z,11.50
2017-10-31T14:59:12.051Z,11.50
2017-10-31T15:01:39.785Z,11.50
2017-10-31T15:04:07.529Z,11.50
2017-10-31T15:06:35.222Z,11.50
2017-10-31T15:09:02.850Z,11.40
2017-10-31T15:11:30.563Z,11.40
2017-10-31T15:13:58.309Z,11.30
2017-10-31T15:16:26.073Z,11.30
2017-10-31T15:18:53.704Z,11.20
2017-10-31T15:21:21.377Z,11.20
2017-10-31T15:23:49.113Z,11.10
2017-10-31T15:26:17.536Z,11.10
2017-10-31T15:28:45.226Z,11.10
2017-10-31T15:31:13.667Z,11.10
2017-10-31T15:33:41.323Z,11.10
2017-10-31T15:36:09.444Z,11.20
2017-10-31T15:38:37.094Z,11.10
2017-10-31T15:41:04.739Z,11.10
2017-10-31T15:43:32.385Z,11.00
2017-10-31T15:46:00.247Z,11.00
2017-10-31T15:48:27.922Z,10.90
2017-10-31T15:50:55.542Z,11.00
2017-10-31T15:53:23.204Z,11.00
2017-10-31T15:55:50.874Z,11.00
2017-10-31T15:58:18.537Z,10.90
2017-10-31T16:00:46.225Z,11.00
2017-10-31T16:03:13.855Z,11.00
2017-10-31T16:05:41.508Z,10.90
2017-10-31T16:08:09.192Z,10.90
2017-10-31T16:10:36.842Z,10.80
2017-10-31T16:13:04.528Z,10.80
2017-10-31T16:15:33.005Z,10.80
2017-10-31T16:18:00.687Z,10.80
2017-10-31T16:20:29.092Z,10.70
2017-10-31T16:22:56.770Z,10.70
2017-10-31T16:25:24.960Z,10.60
2017-10-31T16:27:52.644Z,10.60
2017-10-31T16:30:20.330Z,10.50
2017-10-31T16:32:48.726Z,10.60
2017-10-31T16:35:16.463Z,10.50
2017-10-31T16:37:45.020Z,10.70
2017-10-31T16:40:12.713Z,10.70
2017-10-31T16:42:41.158Z,10.50
2017-10-31T16:45:08.905Z,10.40
2017-10-31T16:47:36.584Z,10.50
2017-10-31T16:50:04.274Z,10.50
2017-10-31T16:52:31.931Z,10.40
2017-10-31T16:54:59.614Z,10.50
2017-10-31T16:57:27.291Z,10.40
2017-10-31T16:59:55.016Z,10.40
2017-10-31T17:02:22.659Z,10.40
2017-10-31T17:04:50.315Z,10.30
2017-10-31T17:07:17.991Z,10.20
2017-10-31T17:09:46.426Z,10.10
2017-10-31T17:12:14.156Z,10.10
2017-10-31T17:14:41.804Z,10.20
2017-10-31T17:17:09.446Z,10.10
2017-10-31T17:19:37.227Z,10.10
2017-10-31T17:22:05.248Z,10.20
2017-10-31T17:24:33.080Z,10.20
2017-10-31T17:27:01.528Z,10.10
2017-10-31T17:29:29.212Z,10.10
2017-10-31T17:31:57.921Z,10.10
2017-10-31T17:34:25.744Z,10.00
2017-10-31T17:36:53.455Z,10.00
2017-10-31T17:39:21.098Z,9.90
2017-10-31T17:41:50.159Z,9.70
2017-10-31T17:44:19.027Z,9.80
2017-10-31T17:46:47.236Z,9.80
2017-10-31T17:49:14.893Z,9.70
2017-10-31T17:51:42.553Z,9.70
2017-10-31T17:54:11.896Z,9.70
2017-10-31T17:56:39.532Z,9.70
2017-10-31T17:59:07.196Z,9.60
2017-10-31T18:01:34.984Z,9.70
2017-10-31T18:04:02.679Z,9.70
2017-10-31T18:06:30.544Z,9.80
2017-10-31T18:08:58.172Z,9.70
2017-10-31T18:11:25.863Z,9.70
2017-10-31T18:13:53.528Z,9.70
2017-10-31T18:16:21.216Z,9.60
2017-10-31T18:18:48.858Z,9.60
2017-10-31T18:21:17.255Z,9.60
2017-10-31T18:23:45.651Z,9.80
2017-10-31T18:26:13.305Z,9.80
2017-10-31T18:28:41.300Z,9.90
2017-10-31T18:31:08.925Z,9.80
2017-10-31T18:33:37.386Z,9.90
2017-10-31T18:36:05.065Z,9.80
2017-10-31T18:38:32.750Z,9.90
2017-10-31T18:41:00.344Z,9.90
2017-10-31T18:43:28.884Z,10.00
2017-10-31T18:45:56.552Z,10.00
2017-10-31T18:48:24.249Z,10.00
2017-10-31T18:50:52.669Z,10.10
2017-10-31T18:53:20.313Z,10.00
2017-10-31T18:55:47.997Z,10.10
2017-10-31T18:58:15.641Z,10.10
2017-10-31T19:00:43.320Z,10.10
2017-10-31T19:03:10.984Z,10.10
2017-10-31T19:05:38.847Z,10.20
2017-10-31T19:08:06.725Z,10.20
2017-10-31T19:10:34.413Z,10.20
2017-10-31T19:13:02.838Z,10.30
2017-10-31T19:15:30.477Z,10.30
2017-10-31T19:17:58.895Z,10.20
2017-10-31T19:20:26.531Z,10.20
2017-10-31T19:22:54.939Z,10.20
2017-10-31T19:25:22.601Z,10.10
2017-10-31T19:27:50.245Z,10.20
2017-10-31T19:30:17.925Z,10.20
2017-10-31T19:32:45.643Z,10.30
2017-10-31T19:35:13.321Z,10.30
2017-10-31T19:37:40.973Z,10.20
2017-10-31T19:40:09.420Z,10.20
2017-10-31T19:42:37.946Z,10.30
2017-10-31T19:45:05.619Z,10.30
2017-10-31T19:47:33.324Z,10.30
2017-10-31T19:50:01.109Z,10.40
2017-10-31T19:52:28.791Z,10.40
2017-10-31T19:54:56.464Z,10.40
2017-10-31T19:57:24.098Z,10.40
2017-10-31T19:59:51.959Z,10.40
2017-10-31T20:02:19.627Z,10.40
2017-10-31T20:04:48.706Z,10.40
2017-10-31T20:07:17.190Z,10.50
2017-10-31T20:09:45.682Z,10.50
2017-10-31T20:12:13.920Z,10.50
2017-10-31T20:14:41.880Z,10.60
2017-10-31T20:17:09.824Z,10.60
2017-10-31T20:19:37.495Z,10.60
2017-10-31T20:22:05.183Z,10.70
2017-10-31T20:24:33.411Z,10.70
2017-10-31T20:27:01.074Z,10.80
2017-10-31T20:29:28.724Z,10.80
2017-10-31T20:31:56.395Z,10.80
2017-10-31T20:34:24.049Z,10.70
2017-10-31T20:36:53.369Z,10.70
2017-10-31T20:39:21.074Z,10.70
2017-10-31T20:41:49.497Z,10.70
2017-10-31T20:44:17.215Z,10.70
2017-10-31T20:46:45.686Z,10.70
2017-10-31T20:49:13.364Z,10.70
2017-10-31T20:51:41.871Z,10.50
2017-10-31T20:54:10.352Z,10.50
2017-10-31T20:56:37.985Z,10.50
2017-10-31T20:59:05.760Z,10.50
2017-10-31T21:01:33.411Z,10.50
2017-10-31T21:04:01.179Z,10.40
2017-10-31T21:06:28.844Z,10.30
2017-10-31T21:08:56.523Z,10.20
2017-10-31T21:11:25.003Z,10.30
2017-10-31T21:13:53.471Z,10.20
2017-10-31T21:16:21.821Z,10.20
2017-10-31T21:18:49.484Z,10.30
2017-10-31T21:21:17.588Z,10.30
2017-10-31T21:23:45.220Z,10.30
2017-10-31T21:26:12.876Z,10.20
2017-10-31T21:28:40.651Z,10.10
2017-10-31T21:31:08.772Z,10.00
2017-10-31T21:33:36.510Z,10.00
2017-10-31T21:36:04.934Z,10.00
2017-10-31T21:38:32.591Z,9.90
2017-10-31T21:41:00.321Z,10.00
2017-10-31T21:43:28.761Z,10.00
2017-10-31T21:45:56.629Z,10.00
2017-10-31T21:48:24.264Z,10.00
2017-10-31T21:50:52.087Z,9.90
2017-10-31T21:53:20.865Z,9.90
2017-10-31T21:55:48.612Z,9.90
2017-10-31T21:58:16.460Z,9.90
2017-10-31T22:00:44.170Z,9.90
2017-10-31T22:03:12.223Z,9.80
2017-10-31T22:05:39.864Z,9.80
2017-10-31T22:08:07.522Z,9.70
2017-10-31T22:10:35.209Z,9.70
2017-10-31T22:13:02.920Z,9.60
2017-10-31T22:15:30.605Z,9.60
2017-10-31T22:17:58.265Z,9.60
2017-10-31T22:20:25.937Z,9.60
2017-10-31T22:22:54.621Z,9.60
2017-10-31T22:25:22.321Z,9.60
2017-10-31T22:27:50.050Z,9.70
2017-10-31T22:30:17.705Z,9.60
2017-10-31T22:32:46.266Z,9.60
2017-10-31T22:35:13.968Z,9.60
2017-10-31T22:37:41.672Z,9.60
2017-10-31T22:40:09.350Z,9.50
2017-10-31T22:42:37.756Z,9.50
2017-10-31T22:45:05.428Z,9.50
2017-10-31T22:47:34.056Z,9.50
2017-10-31T22:50:01.780Z,9.50
2017-10-31T22:52:29.475Z,9.40
2017-10-31T22:54:57.185Z,9.40
2017-10-31T22:57:25.569Z,9.40
2017-10-31T22:59:53.202Z,9.40
2017-10-31T23:02:21.665Z,9.60
2017-10-31T23:04:49.422Z,9.60
2017-10-31T23:07:17.108Z,9.60
2017-10-31T23:09:45.553Z,9.50
2017-10-31T23:12:13.193Z,9.50
2017-10-31T23:14:41.874Z,9.60
2017-10-31T23:17:12.653Z,9.60
2017-10-31T23:19:48.510Z,9.60
2017-10-31T23:22:21.193Z,9.60
2017-10-31T23:24:54.603Z,9.50
2017-10-31T23:27:23.636Z,9.50
2017-10-31T23:29:51.323Z,9.50
2017-10-31T23:32:18.981Z,9.50
2017-10-31T23:34:47.408Z,9.40
2017-10-31T23:37:15.083Z,9.40
2017-10-31T23:39:42.718Z,9.50
2017-10-31T23:42:10.393Z,9.50
2017-10-31T23:44:38.090Z,9.60
2017-10-31T23:47:05.787Z,9.60
2017-10-31T23:49:33.523Z,9.60
2017-10-31T23:52:01.160Z,9.70
2017-10-31T23:54:28.844Z,9.70
2017-10-31T23:56:57.568Z,9.70
2017-10-31T23:59:25.224Z,9.70
